sensor_id;sensor_type;location;lat;lon;timestamp;temperature;humidity
12060;DHT22;6091;51.432;6.880;2023-05-10T00:02:20;25.80;41.10
12060;DHT22;6091;51.432;6.880;2023-05-10T00:04:49;25.90;41.70
12060;DHT22;6091;51.432;6.880;2023-05-10T00:07:16;25.90;41.70
12060;DHT22;6091;51.432;6.880;2023-05-10T00:09:44;25.80;41.20
12060;DHT22;6091;51.432;6.880;2023-05-10T00:12:12;25.80;41.70
12060;DHT22;6091;51.432;6.880;2023-05-10T00:14:40;25.90;41.70
12060;DHT22;6091;51.432;6.880;2023-05-10T00:17:10;25.80;41.20
12060;DHT22;6091;51.432;6.880;2023-05-10T00:19:38;25.90;41.20
12060;DHT22;6091;51.432;6.880;2023-05-10T00:22:06;26.30;41.50
12060;DHT22;6091;51.432;6.880;2023-05-10T00:24:35;25.80;41.70
12060;DHT22;6091;51.432;6.880;2023-05-10T00:27:02;25.80;41.70
12060;DHT22;6091;51.432;6.880;2023-05-10T00:29:31;25.80;41.70
12060;DHT22;6091;51.432;6.880;2023-05-10T00:32:00;25.80;41.30
12060;DHT22;6091;51.432;6.880;2023-05-10T00:34:30;25.80;41.20
12060;DHT22;6091;51.432;6.880;2023-05-10T00:36:57;25.80;41.20
12060;DHT22;6091;51.432;6.880;2023-05-10T00:39:26;25.80;41.70
12060;DHT22;6091;51.432;6.880;2023-05-10T00:41:56;25.80;41.30
12060;DHT22;6091;51.432;6.880;2023-05-10T00:44:27;25.70;41.20
12060;DHT22;6091;51.432;6.880;2023-05-10T00:46:56;25.80;41.80
12060;DHT22;6091;51.432;6.880;2023-05-10T00:49:26;25.80;41.30
12060;DHT22;6091;51.432;6.880;2023-05-10T00:51:55;25.80;41.30
12060;DHT22;6091;51.432;6.880;2023-05-10T00:54:23;25.80;41.80
12060;DHT22;6091;51.432;6.880;2023-05-10T00:56:51;25.70;41.20
12060;DHT22;6091;51.432;6.880;2023-05-10T00:59:19;25.80;41.80
12060;DHT22;6091;51.432;6.880;2023-05-10T01:01:48;25.70;41.30
12060;DHT22;6091;51.432;6.880;2023-05-10T01:04:16;25.70;41.30
12060;DHT22;6091;51.432;6.880;2023-05-10T01:06:43;25.80;41.20
12060;DHT22;6091;51.432;6.880;2023-05-10T01:09:14;25.70;41.20
12060;DHT22;6091;51.432;6.880;2023-05-10T01:11:41;25.80;41.80
12060;DHT22;6091;51.432;6.880;2023-05-10T01:14:09;25.70;41.20
12060;DHT22;6091;51.432;6.880;2023-05-10T01:16:40;25.70;41.80
12060;DHT22;6091;51.432;6.880;2023-05-10T01:19:34;25.80;41.40
12060;DHT22;6091;51.432;6.880;2023-05-10T01:27:53;25.80;41.40
12060;DHT22;6091;51.432;6.880;2023-05-10T01:34:13;25.70;41.90
12060;DHT22;6091;51.432;6.880;2023-05-10T01:42:21;25.70;41.80
12060;DHT22;6091;51.432;6.880;2023-05-10T01:45:00;25.70;41.80
12060;DHT22;6091;51.432;6.880;2023-05-10T01:47:50;25.70;41.80
12060;DHT22;6091;51.432;6.880;2023-05-10T01:50:27;25.70;41.90
12060;DHT22;6091;51.432;6.880;2023-05-10T01:52:59;25.60;41.30
12060;DHT22;6091;51.432;6.880;2023-05-10T01:55:30;25.60;41.30
12060;DHT22;6091;51.432;6.880;2023-05-10T01:58:13;25.70;41.40
12060;DHT22;6091;51.432;6.880;2023-05-10T02:00:45;25.70;42.00
12060;DHT22;6091;51.432;6.880;2023-05-10T02:03:15;25.70;41.90
12060;DHT22;6091;51.432;6.880;2023-05-10T02:05:49;25.60;41.40
12060;DHT22;6091;51.432;6.880;2023-05-10T02:10:50;25.60;41.40
12060;DHT22;6091;51.432;6.880;2023-05-10T02:13:21;25.60;41.90
12060;DHT22;6091;51.432;6.880;2023-05-10T02:15:53;25.60;41.40
12060;DHT22;6091;51.432;6.880;2023-05-10T02:20:52;25.60;41.40
12060;DHT22;6091;51.432;6.880;2023-05-10T02:23:23;25.60;41.40
12060;DHT22;6091;51.432;6.880;2023-05-10T02:25:51;25.70;41.40
12060;DHT22;6091;51.432;6.880;2023-05-10T02:28:23;25.60;41.40
12060;DHT22;6091;51.432;6.880;2023-05-10T02:30:53;25.60;41.90
12060;DHT22;6091;51.432;6.880;2023-05-10T02:33:24;25.60;41.90
12060;DHT22;6091;51.432;6.880;2023-05-10T02:35:54;25.60;41.50
12060;DHT22;6091;51.432;6.880;2023-05-10T02:38:23;25.60;42.00
12060;DHT22;6091;51.432;6.880;2023-05-10T02:40:56;25.60;41.40
12060;DHT22;6091;51.432;6.880;2023-05-10T02:43:25;25.60;41.40
12060;DHT22;6091;51.432;6.880;2023-05-10T02:45:55;25.60;41.50
12060;DHT22;6091;51.432;6.880;2023-05-10T02:48:25;25.70;41.50
12060;DHT22;6091;51.432;6.880;2023-05-10T02:50:54;25.50;41.40
12060;DHT22;6091;51.432;6.880;2023-05-10T02:53:37;25.50;41.40
12060;DHT22;6091;51.432;6.880;2023-05-10T02:56:31;25.60;41.40
12060;DHT22;6091;51.432;6.880;2023-05-10T02:59:01;25.60;41.40
12060;DHT22;6091;51.432;6.880;2023-05-10T03:01:29;25.50;41.40
12060;DHT22;6091;51.432;6.880;2023-05-10T03:03:56;25.60;41.40
12060;DHT22;6091;51.432;6.880;2023-05-10T03:06:24;25.60;42.00
12060;DHT22;6091;51.432;6.880;2023-05-10T03:08:51;25.60;41.40
12060;DHT22;6091;51.432;6.880;2023-05-10T03:17:39;25.50;41.30
12060;DHT22;6091;51.432;6.880;2023-05-10T03:20:26;25.50;41.40
12060;DHT22;6091;51.432;6.880;2023-05-10T03:23:30;25.60;41.50
12060;DHT22;6091;51.432;6.880;2023-05-10T03:26:04;25.60;41.40
12060;DHT22;6091;51.432;6.880;2023-05-10T03:28:36;25.50;41.40
12060;DHT22;6091;51.432;6.880;2023-05-10T03:31:05;25.50;41.40
12060;DHT22;6091;51.432;6.880;2023-05-10T03:36:12;25.40;41.40
12060;DHT22;6091;51.432;6.880;2023-05-10T03:38:40;25.60;41.50
12060;DHT22;6091;51.432;6.880;2023-05-10T03:41:08;25.50;41.40
12060;DHT22;6091;51.432;6.880;2023-05-10T03:43:35;25.50;41.50
12060;DHT22;6091;51.432;6.880;2023-05-10T03:46:05;25.50;41.40
12060;DHT22;6091;51.432;6.880;2023-05-10T03:48:34;25.50;42.70
12060;DHT22;6091;51.432;6.880;2023-05-10T03:51:01;25.50;42.00
12060;DHT22;6091;51.432;6.880;2023-05-10T03:53:32;25.50;41.50
12060;DHT22;6091;51.432;6.880;2023-05-10T03:56:00;25.40;41.50
12060;DHT22;6091;51.432;6.880;2023-05-10T03:58:28;25.40;41.50
12060;DHT22;6091;51.432;6.880;2023-05-10T04:00:58;25.50;41.40
12060;DHT22;6091;51.432;6.880;2023-05-10T04:03:29;25.30;41.40
12060;DHT22;6091;51.432;6.880;2023-05-10T04:08:31;25.50;41.60
12060;DHT22;6091;51.432;6.880;2023-05-10T04:11:09;25.40;41.50
12060;DHT22;6091;51.432;6.880;2023-05-10T04:13:38;25.50;41.60
12060;DHT22;6091;51.432;6.880;2023-05-10T04:16:13;25.50;41.60
12060;DHT22;6091;51.432;6.880;2023-05-10T04:18:41;25.40;41.50
12060;DHT22;6091;51.432;6.880;2023-05-10T04:21:12;25.40;41.50
12060;DHT22;6091;51.432;6.880;2023-05-10T04:23:43;25.40;41.50
12060;DHT22;6091;51.432;6.880;2023-05-10T04:28:41;25.40;41.50
12060;DHT22;6091;51.432;6.880;2023-05-10T04:31:09;25.40;41.50
12060;DHT22;6091;51.432;6.880;2023-05-10T04:33:39;25.50;41.50
12060;DHT22;6091;51.432;6.880;2023-05-10T04:36:09;25.40;41.50
12060;DHT22;6091;51.432;6.880;2023-05-10T04:38:38;25.40;41.50
12060;DHT22;6091;51.432;6.880;2023-05-10T04:41:10;25.40;41.50
12060;DHT22;6091;51.432;6.880;2023-05-10T04:43:40;25.40;41.60
12060;DHT22;6091;51.432;6.880;2023-05-10T04:46:08;25.50;41.50
12060;DHT22;6091;51.432;6.880;2023-05-10T04:48:39;25.50;41.50
12060;DHT22;6091;51.432;6.880;2023-05-10T04:53:35;25.40;41.50
12060;DHT22;6091;51.432;6.880;2023-05-10T04:56:03;25.40;41.50
12060;DHT22;6091;51.432;6.880;2023-05-10T05:03:37;25.40;41.50
12060;DHT22;6091;51.432;6.880;2023-05-10T05:06:05;25.50;41.50
12060;DHT22;6091;51.432;6.880;2023-05-10T05:13:31;25.40;41.50
12060;DHT22;6091;51.432;6.880;2023-05-10T05:16:02;25.40;41.50
12060;DHT22;6091;51.432;6.880;2023-05-10T05:21:01;25.40;41.50
12060;DHT22;6091;51.432;6.880;2023-05-10T05:23:28;25.40;41.50
12060;DHT22;6091;51.432;6.880;2023-05-10T05:25:57;25.50;41.60
12060;DHT22;6091;51.432;6.880;2023-05-10T05:30:52;25.40;41.50
12060;DHT22;6091;51.432;6.880;2023-05-10T05:33:22;25.50;41.50
12060;DHT22;6091;51.432;6.880;2023-05-10T05:35:52;25.50;41.60
12060;DHT22;6091;51.432;6.880;2023-05-10T05:38:23;25.40;41.50
12060;DHT22;6091;51.432;6.880;2023-05-10T05:40:53;25.50;41.60
12060;DHT22;6091;51.432;6.880;2023-05-10T05:45:49;25.40;41.60
12060;DHT22;6091;51.432;6.880;2023-05-10T05:48:17;25.50;41.70
12060;DHT22;6091;51.432;6.880;2023-05-10T05:50:44;25.60;41.80
12060;DHT22;6091;51.432;6.880;2023-05-10T05:53:12;25.50;41.80
12060;DHT22;6091;51.432;6.880;2023-05-10T05:55:51;25.60;41.90
12060;DHT22;6091;51.432;6.880;2023-05-10T06:00:51;25.70;41.90
12060;DHT22;6091;51.432;6.880;2023-05-10T06:03:20;25.80;42.00
12060;DHT22;6091;51.432;6.880;2023-05-10T06:05:48;23.50;40.30
12060;DHT22;6091;51.432;6.880;2023-05-10T06:08:16;25.90;41.90
12060;DHT22;6091;51.432;6.880;2023-05-10T06:10:43;26.10;42.00
12060;DHT22;6091;51.432;6.880;2023-05-10T06:13:15;26.00;41.90
12060;DHT22;6091;51.432;6.880;2023-05-10T06:15:43;26.00;41.90
12060;DHT22;6091;51.432;6.880;2023-05-10T06:18:11;26.20;42.00
12060;DHT22;6091;51.432;6.880;2023-05-10T06:20:38;26.30;42.00
12060;DHT22;6091;51.432;6.880;2023-05-10T06:23:08;26.30;42.00
12060;DHT22;6091;51.432;6.880;2023-05-10T06:25:39;26.30;41.90
12060;DHT22;6091;51.432;6.880;2023-05-10T06:28:09;26.40;41.90
12060;DHT22;6091;51.432;6.880;2023-05-10T06:30:37;26.50;41.90
12060;DHT22;6091;51.432;6.880;2023-05-10T06:33:05;26.50;41.80
12060;DHT22;6091;51.432;6.880;2023-05-10T06:35:32;26.50;41.80
12060;DHT22;6091;51.432;6.880;2023-05-10T06:38:01;26.60;41.80
12060;DHT22;6091;51.432;6.880;2023-05-10T06:42:56;26.60;41.70
12060;DHT22;6091;51.432;6.880;2023-05-10T06:45:24;26.60;41.60
12060;DHT22;6091;51.432;6.880;2023-05-10T06:47:51;26.60;41.60
12060;DHT22;6091;51.432;6.880;2023-05-10T06:50:21;26.60;42.10
12060;DHT22;6091;51.432;6.880;2023-05-10T06:57:46;26.70;41.60
12060;DHT22;6091;51.432;6.880;2023-05-10T07:00:18;26.70;41.60
12060;DHT22;6091;51.432;6.880;2023-05-10T07:02:47;26.70;41.50
12060;DHT22;6091;51.432;6.880;2023-05-10T07:05:17;26.80;41.60
12060;DHT22;6091;51.432;6.880;2023-05-10T07:07:49;26.70;41.50
12060;DHT22;6091;51.432;6.880;2023-05-10T07:10:16;26.80;41.60
12060;DHT22;6091;51.432;6.880;2023-05-10T07:12:44;26.80;41.50
12060;DHT22;6091;51.432;6.880;2023-05-10T07:17:42;26.80;41.50
12060;DHT22;6091;51.432;6.880;2023-05-10T07:27:35;26.80;41.40
12060;DHT22;6091;51.432;6.880;2023-05-10T07:30:02;26.70;41.40
12060;DHT22;6091;51.432;6.880;2023-05-10T07:32:30;26.70;41.40
12060;DHT22;6091;51.432;6.880;2023-05-10T07:34:57;26.70;41.40
12060;DHT22;6091;51.432;6.880;2023-05-10T07:37:24;26.70;41.90
12060;DHT22;6091;51.432;6.880;2023-05-10T07:39:51;26.80;41.50
12060;DHT22;6091;51.432;6.880;2023-05-10T07:42:20;26.70;41.50
12060;DHT22;6091;51.432;6.880;2023-05-10T07:44:47;26.70;41.60
12060;DHT22;6091;51.432;6.880;2023-05-10T07:49:42;26.60;41.50
12060;DHT22;6091;51.432;6.880;2023-05-10T07:52:10;26.60;41.60
12060;DHT22;6091;51.432;6.880;2023-05-10T07:54:37;26.70;41.60
12060;DHT22;6091;51.432;6.880;2023-05-10T07:59:41;26.60;41.60
12060;DHT22;6091;51.432;6.880;2023-05-10T08:09:42;26.60;41.70
12060;DHT22;6091;51.432;6.880;2023-05-10T08:14:38;26.70;41.70
12060;DHT22;6091;51.432;6.880;2023-05-10T08:17:05;26.70;41.80
12060;DHT22;6091;51.432;6.880;2023-05-10T08:19:32;26.70;41.80
12060;DHT22;6091;51.432;6.880;2023-05-10T08:21:59;26.80;41.80
12060;DHT22;6091;51.432;6.880;2023-05-10T08:26:54;26.90;41.90
12060;DHT22;6091;51.432;6.880;2023-05-10T08:29:21;26.80;41.90
12060;DHT22;6091;51.432;6.880;2023-05-10T08:31:48;26.90;41.90
12060;DHT22;6091;51.432;6.880;2023-05-10T08:34:16;26.90;42.00
12060;DHT22;6091;51.432;6.880;2023-05-10T08:36:43;26.80;41.90
12060;DHT22;6091;51.432;6.880;2023-05-10T08:39:10;26.80;41.90
12060;DHT22;6091;51.432;6.880;2023-05-10T08:41:58;26.90;41.90
12060;DHT22;6091;51.432;6.880;2023-05-10T08:44:34;26.90;41.90
12060;DHT22;6091;51.432;6.880;2023-05-10T08:47:05;26.90;41.90
12060;DHT22;6091;51.432;6.880;2023-05-10T08:49:33;26.90;41.90
12060;DHT22;6091;51.432;6.880;2023-05-10T08:52:05;26.90;41.90
12060;DHT22;6091;51.432;6.880;2023-05-10T08:54:34;26.90;41.90
12060;DHT22;6091;51.432;6.880;2023-05-10T08:57:03;27.00;42.00
12060;DHT22;6091;51.432;6.880;2023-05-10T09:01:58;26.90;41.90
12060;DHT22;6091;51.432;6.880;2023-05-10T09:04:27;27.10;42.00
12060;DHT22;6091;51.432;6.880;2023-05-10T09:06:54;27.10;42.00
12060;DHT22;6091;51.432;6.880;2023-05-10T09:09:22;27.10;42.00
12060;DHT22;6091;51.432;6.880;2023-05-10T09:11:51;27.00;42.40
12060;DHT22;6091;51.432;6.880;2023-05-10T09:14:19;27.00;41.80
12060;DHT22;6091;51.432;6.880;2023-05-10T09:16:47;27.10;41.80
12060;DHT22;6091;51.432;6.880;2023-05-10T09:19:14;27.10;41.80
12060;DHT22;6091;51.432;6.880;2023-05-10T09:21:42;27.10;41.80
12060;DHT22;6091;51.432;6.880;2023-05-10T09:24:14;27.10;41.80
12060;DHT22;6091;51.432;6.880;2023-05-10T09:26:48;27.10;41.80
12060;DHT22;6091;51.432;6.880;2023-05-10T09:31:48;27.20;41.80
12060;DHT22;6091;51.432;6.880;2023-05-10T09:34:30;27.20;41.70
12060;DHT22;6091;51.432;6.880;2023-05-10T09:37:00;27.10;41.70
12060;DHT22;6091;51.432;6.880;2023-05-10T09:39:33;27.10;41.70
12060;DHT22;6091;51.432;6.880;2023-05-10T09:42:19;27.10;41.70
12060;DHT22;6091;51.432;6.880;2023-05-10T09:44:46;27.10;41.70
12060;DHT22;6091;51.432;6.880;2023-05-10T09:47:18;27.20;41.70
12060;DHT22;6091;51.432;6.880;2023-05-10T09:49:52;27.20;41.70
12060;DHT22;6091;51.432;6.880;2023-05-10T09:52:21;27.20;41.70
12060;DHT22;6091;51.432;6.880;2023-05-10T09:54:54;27.10;41.60
12060;DHT22;6091;51.432;6.880;2023-05-10T09:57:23;27.20;41.70
12060;DHT22;6091;51.432;6.880;2023-05-10T10:00:00;27.10;42.10
12060;DHT22;6091;51.432;6.880;2023-05-10T10:02:28;27.10;41.60
12060;DHT22;6091;51.432;6.880;2023-05-10T10:04:56;27.10;41.70
12060;DHT22;6091;51.432;6.880;2023-05-10T10:07:24;27.20;41.70
12060;DHT22;6091;51.432;6.880;2023-05-10T10:09:55;27.20;41.70
12060;DHT22;6091;51.432;6.880;2023-05-10T10:12:23;27.20;42.30
12060;DHT22;6091;51.432;6.880;2023-05-10T10:14:50;27.20;41.70
12060;DHT22;6091;51.432;6.880;2023-05-10T10:17:19;27.20;41.70
12060;DHT22;6091;51.432;6.880;2023-05-10T10:19:48;27.20;42.20
12060;DHT22;6091;51.432;6.880;2023-05-10T10:22:17;27.20;41.60
12060;DHT22;6091;51.432;6.880;2023-05-10T10:24:44;27.30;41.60
12060;DHT22;6091;51.432;6.880;2023-05-10T10:27:37;27.30;41.60
12060;DHT22;6091;51.432;6.880;2023-05-10T10:30:43;27.20;41.50
12060;DHT22;6091;51.432;6.880;2023-05-10T10:36:16;27.20;41.40
12060;DHT22;6091;51.432;6.880;2023-05-10T10:44:25;27.20;41.40
12060;DHT22;6091;51.432;6.880;2023-05-10T10:55:20;27.20;41.40
12060;DHT22;6091;51.432;6.880;2023-05-10T10:57:53;27.20;41.50
12060;DHT22;6091;51.432;6.880;2023-05-10T11:00:35;27.10;41.50
12060;DHT22;6091;51.432;6.880;2023-05-10T11:03:04;27.20;41.50
12060;DHT22;6091;51.432;6.880;2023-05-10T11:08:25;27.20;41.50
12060;DHT22;6091;51.432;6.880;2023-05-10T11:16:20;27.20;41.40
12060;DHT22;6091;51.432;6.880;2023-05-10T11:21:33;27.20;41.30
12060;DHT22;6091;51.432;6.880;2023-05-10T11:26:39;27.20;41.20
12060;DHT22;6091;51.432;6.880;2023-05-10T11:29:07;27.20;41.70
12060;DHT22;6091;51.432;6.880;2023-05-10T11:31:35;27.20;41.20
12060;DHT22;6091;51.432;6.880;2023-05-10T11:34:11;27.10;41.20
12060;DHT22;6091;51.432;6.880;2023-05-10T11:36:39;27.00;41.10
12060;DHT22;6091;51.432;6.880;2023-05-10T11:39:06;27.10;41.70
12060;DHT22;6091;51.432;6.880;2023-05-10T11:41:34;27.10;41.20
12060;DHT22;6091;51.432;6.880;2023-05-10T11:44:01;27.00;41.60
12060;DHT22;6091;51.432;6.880;2023-05-10T11:46:29;27.10;41.10
12060;DHT22;6091;51.432;6.880;2023-05-10T11:49:01;27.10;41.10
12060;DHT22;6091;51.432;6.880;2023-05-10T11:51:34;27.20;41.10
12060;DHT22;6091;51.432;6.880;2023-05-10T11:54:10;27.10;41.60
12060;DHT22;6091;51.432;6.880;2023-05-10T11:56:39;27.20;41.10
12060;DHT22;6091;51.432;6.880;2023-05-10T11:59:08;27.10;41.00
12060;DHT22;6091;51.432;6.880;2023-05-10T12:01:36;27.10;41.00
12060;DHT22;6091;51.432;6.880;2023-05-10T12:04:03;27.10;41.50
12060;DHT22;6091;51.432;6.880;2023-05-10T12:06:32;27.10;41.00
12060;DHT22;6091;51.432;6.880;2023-05-10T12:09:07;27.10;40.90
12060;DHT22;6091;51.432;6.880;2023-05-10T12:11:40;27.00;40.80
12060;DHT22;6091;51.432;6.880;2023-05-10T12:14:10;27.10;40.80
12060;DHT22;6091;51.432;6.880;2023-05-10T12:16:37;27.20;40.90
12060;DHT22;6091;51.432;6.880;2023-05-10T12:19:05;27.10;40.90
12060;DHT22;6091;51.432;6.880;2023-05-10T12:21:32;27.10;40.90
12060;DHT22;6091;51.432;6.880;2023-05-10T12:24:02;27.10;40.90
12060;DHT22;6091;51.432;6.880;2023-05-10T12:26:30;27.10;40.80
12060;DHT22;6091;51.432;6.880;2023-05-10T12:29:18;27.10;40.80
12060;DHT22;6091;51.432;6.880;2023-05-10T12:34:32;27.20;40.80
12060;DHT22;6091;51.432;6.880;2023-05-10T12:37:02;27.20;40.80
12060;DHT22;6091;51.432;6.880;2023-05-10T12:39:44;27.20;40.70
12060;DHT22;6091;51.432;6.880;2023-05-10T12:42:12;27.20;40.70
12060;DHT22;6091;51.432;6.880;2023-05-10T12:44:40;27.30;40.80
12060;DHT22;6091;51.432;6.880;2023-05-10T12:47:07;27.20;41.20
12060;DHT22;6091;51.432;6.880;2023-05-10T12:52:02;27.20;40.60
12060;DHT22;6091;51.432;6.880;2023-05-10T12:54:29;27.20;40.60
12060;DHT22;6091;51.432;6.880;2023-05-10T12:56:57;27.30;41.20
12060;DHT22;6091;51.432;6.880;2023-05-10T12:59:24;27.30;41.20
12060;DHT22;6091;51.432;6.880;2023-05-10T13:01:51;27.30;41.20
12060;DHT22;6091;51.432;6.880;2023-05-10T13:04:19;27.30;40.70
12060;DHT22;6091;51.432;6.880;2023-05-10T13:09:13;27.30;40.70
12060;DHT22;6091;51.432;6.880;2023-05-10T13:11:41;27.40;40.80
12060;DHT22;6091;51.432;6.880;2023-05-10T13:14:09;27.60;40.90
12060;DHT22;6091;51.432;6.880;2023-05-10T13:16:36;27.70;40.90
12060;DHT22;6091;51.432;6.880;2023-05-10T13:19:04;27.80;40.80
12060;DHT22;6091;51.432;6.880;2023-05-10T13:21:31;27.80;40.70
12060;DHT22;6091;51.432;6.880;2023-05-10T13:26:29;28.30;40.60
12060;DHT22;6091;51.432;6.880;2023-05-10T13:28:56;28.00;40.90
12060;DHT22;6091;51.432;6.880;2023-05-10T13:33:51;28.00;40.10
12060;DHT22;6091;51.432;6.880;2023-05-10T13:38:46;28.20;40.20
12060;DHT22;6091;51.432;6.880;2023-05-10T13:43:41;28.10;39.90
12060;DHT22;6091;51.432;6.880;2023-05-10T13:46:10;28.10;40.10
12060;DHT22;6091;51.432;6.880;2023-05-10T13:56:04;28.10;39.80
12060;DHT22;6091;51.432;6.880;2023-05-10T13:58:31;28.00;39.70
12060;DHT22;6091;51.432;6.880;2023-05-10T14:01:04;28.20;39.80
12060;DHT22;6091;51.432;6.880;2023-05-10T14:03:32;28.10;39.70
12060;DHT22;6091;51.432;6.880;2023-05-10T14:06:00;28.00;39.60
12060;DHT22;6091;51.432;6.880;2023-05-10T14:08:27;28.00;39.50
12060;DHT22;6091;51.432;6.880;2023-05-10T14:11:01;28.00;39.50
12060;DHT22;6091;51.432;6.880;2023-05-10T14:13:28;28.00;39.60
12060;DHT22;6091;51.432;6.880;2023-05-10T14:15:58;28.00;39.60
12060;DHT22;6091;51.432;6.880;2023-05-10T14:18:27;28.00;39.60
12060;DHT22;6091;51.432;6.880;2023-05-10T14:23:22;27.90;39.40
12060;DHT22;6091;51.432;6.880;2023-05-10T14:28:24;28.00;39.40
12060;DHT22;6091;51.432;6.880;2023-05-10T14:33:24;27.90;39.40
12060;DHT22;6091;51.432;6.880;2023-05-10T14:38:23;27.90;39.40
12060;DHT22;6091;51.432;6.880;2023-05-10T14:40:50;27.90;39.40
12060;DHT22;6091;51.432;6.880;2023-05-10T14:45:45;27.30;39.00
12060;DHT22;6091;51.432;6.880;2023-05-10T14:48:13;27.90;39.50
12060;DHT22;6091;51.432;6.880;2023-05-10T14:50:44;27.80;39.40
12060;DHT22;6091;51.432;6.880;2023-05-10T14:53:12;27.80;39.40
12060;DHT22;6091;51.432;6.880;2023-05-10T14:58:07;27.80;39.40
12060;DHT22;6091;51.432;6.880;2023-05-10T15:00:34;27.80;39.50
12060;DHT22;6091;51.432;6.880;2023-05-10T15:03:03;27.80;39.50
12060;DHT22;6091;51.432;6.880;2023-05-10T15:05:31;27.80;39.50
12060;DHT22;6091;51.432;6.880;2023-05-10T15:10:26;27.80;39.40
12060;DHT22;6091;51.432;6.880;2023-05-10T15:15:21;27.80;39.30
12060;DHT22;6091;51.432;6.880;2023-05-10T15:17:48;27.80;39.30
12060;DHT22;6091;51.432;6.880;2023-05-10T15:20:16;27.90;39.40
12060;DHT22;6091;51.432;6.880;2023-05-10T15:22:46;27.80;39.30
12060;DHT22;6091;51.432;6.880;2023-05-10T15:25:13;27.80;39.30
12060;DHT22;6091;51.432;6.880;2023-05-10T15:27:42;27.90;39.30
12060;DHT22;6091;51.432;6.880;2023-05-10T15:30:13;27.90;39.80
12060;DHT22;6091;51.432;6.880;2023-05-10T15:35:09;27.90;39.20
12060;DHT22;6091;51.432;6.880;2023-05-10T15:37:37;27.80;39.10
12060;DHT22;6091;51.432;6.880;2023-05-10T15:40:08;27.80;39.60
12060;DHT22;6091;51.432;6.880;2023-05-10T15:42:36;27.80;39.00
12060;DHT22;6091;51.432;6.880;2023-05-10T15:45:04;27.70;39.00
12060;DHT22;6091;51.432;6.880;2023-05-10T15:47:32;27.80;39.10
12060;DHT22;6091;51.432;6.880;2023-05-10T15:50:00;27.60;39.00
12060;DHT22;6091;51.432;6.880;2023-05-10T15:52:27;27.70;39.00
12060;DHT22;6091;51.432;6.880;2023-05-10T15:54:54;27.80;39.10
12060;DHT22;6091;51.432;6.880;2023-05-10T15:57:22;27.60;39.00
12060;DHT22;6091;51.432;6.880;2023-05-10T15:59:49;27.60;39.00
12060;DHT22;6091;51.432;6.880;2023-05-10T16:02:17;27.50;39.00
12060;DHT22;6091;51.432;6.880;2023-05-10T16:04:45;27.50;39.00
12060;DHT22;6091;51.432;6.880;2023-05-10T16:09:40;27.30;39.00
12060;DHT22;6091;51.432;6.880;2023-05-10T16:12:07;27.30;39.00
12060;DHT22;6091;51.432;6.880;2023-05-10T16:17:02;27.30;39.00
12060;DHT22;6091;51.432;6.880;2023-05-10T16:19:30;27.30;39.00
12060;DHT22;6091;51.432;6.880;2023-05-10T16:21:58;27.20;39.60
12060;DHT22;6091;51.432;6.880;2023-05-10T16:24:27;27.20;39.10
12060;DHT22;6091;51.432;6.880;2023-05-10T16:26:54;27.20;39.60
12060;DHT22;6091;51.432;6.880;2023-05-10T16:29:22;27.10;39.10
12060;DHT22;6091;51.432;6.880;2023-05-10T16:31:49;27.10;39.10
12060;DHT22;6091;51.432;6.880;2023-05-10T16:34:16;27.00;39.10
12060;DHT22;6091;51.432;6.880;2023-05-10T16:39:14;27.00;39.20
12060;DHT22;6091;51.432;6.880;2023-05-10T16:41:42;26.90;39.10
12060;DHT22;6091;51.432;6.880;2023-05-10T16:44:09;26.90;39.70
12060;DHT22;6091;51.432;6.880;2023-05-10T16:46:37;26.90;39.70
12060;DHT22;6091;51.432;6.880;2023-05-10T16:49:08;26.90;39.40
12060;DHT22;6091;51.432;6.880;2023-05-10T16:51:35;26.90;40.00
12060;DHT22;6091;51.432;6.880;2023-05-10T16:54:02;26.80;39.30
12060;DHT22;6091;51.432;6.880;2023-05-10T16:58:57;26.80;39.30
12060;DHT22;6091;51.432;6.880;2023-05-10T17:01:24;26.80;40.00
12060;DHT22;6091;51.432;6.880;2023-05-10T17:03:53;26.70;39.50
12060;DHT22;6091;51.432;6.880;2023-05-10T17:06:20;26.70;39.40
12060;DHT22;6091;51.432;6.880;2023-05-10T17:08:49;26.70;39.50
12060;DHT22;6091;51.432;6.880;2023-05-10T17:11:17;26.70;39.50
12060;DHT22;6091;51.432;6.880;2023-05-10T17:13:47;26.60;39.50
12060;DHT22;6091;51.432;6.880;2023-05-10T17:16:14;26.70;39.50
12060;DHT22;6091;51.432;6.880;2023-05-10T17:18:41;26.70;40.10
12060;DHT22;6091;51.432;6.880;2023-05-10T17:21:09;26.60;39.50
12060;DHT22;6091;51.432;6.880;2023-05-10T17:23:36;26.60;39.50
12060;DHT22;6091;51.432;6.880;2023-05-10T17:26:07;26.60;39.60
12060;DHT22;6091;51.432;6.880;2023-05-10T17:28:34;26.70;39.60
12060;DHT22;6091;51.432;6.880;2023-05-10T17:31:02;26.60;39.50
12060;DHT22;6091;51.432;6.880;2023-05-10T17:33:29;26.60;39.60
12060;DHT22;6091;51.432;6.880;2023-05-10T17:35:57;26.70;39.60
12060;DHT22;6091;51.432;6.880;2023-05-10T17:38:24;26.60;39.50
12060;DHT22;6091;51.432;6.880;2023-05-10T17:40:52;26.70;39.60
12060;DHT22;6091;51.432;6.880;2023-05-10T17:43:19;26.60;39.60
12060;DHT22;6091;51.432;6.880;2023-05-10T17:45:48;26.60;39.60
12060;DHT22;6091;51.432;6.880;2023-05-10T17:48:16;26.70;39.60
12060;DHT22;6091;51.432;6.880;2023-05-10T17:50:43;26.60;39.60
12060;DHT22;6091;51.432;6.880;2023-05-10T17:53:13;26.60;39.60
12060;DHT22;6091;51.432;6.880;2023-05-10T17:55:41;26.70;39.60
12060;DHT22;6091;51.432;6.880;2023-05-10T17:58:10;26.60;39.60
12060;DHT22;6091;51.432;6.880;2023-05-10T18:00:38;26.60;39.70
12060;DHT22;6091;51.432;6.880;2023-05-10T18:05:37;26.50;39.60
12060;DHT22;6091;51.432;6.880;2023-05-10T18:10:35;26.50;39.80
12060;DHT22;6091;51.432;6.880;2023-05-10T18:13:09;26.60;39.80
12060;DHT22;6091;51.432;6.880;2023-05-10T18:15:38;26.60;39.80
12060;DHT22;6091;51.432;6.880;2023-05-10T18:18:07;26.50;39.80
12060;DHT22;6091;51.432;6.880;2023-05-10T18:20:35;26.50;39.80
12060;DHT22;6091;51.432;6.880;2023-05-10T18:23:02;26.60;40.40
12060;DHT22;6091;51.432;6.880;2023-05-10T18:25:30;26.50;39.80
12060;DHT22;6091;51.432;6.880;2023-05-10T18:27:58;26.50;39.80
12060;DHT22;6091;51.432;6.880;2023-05-10T18:30:25;26.50;39.80
12060;DHT22;6091;51.432;6.880;2023-05-10T18:32:56;26.40;39.80
12060;DHT22;6091;51.432;6.880;2023-05-10T18:35:27;26.40;39.80
12060;DHT22;6091;51.432;6.880;2023-05-10T18:37:54;26.40;39.70
12060;DHT22;6091;51.432;6.880;2023-05-10T18:42:49;26.40;39.80
12060;DHT22;6091;51.432;6.880;2023-05-10T18:45:17;26.40;39.80
12060;DHT22;6091;51.432;6.880;2023-05-10T18:47:45;26.40;40.40
12060;DHT22;6091;51.432;6.880;2023-05-10T18:50:13;26.30;39.70
12060;DHT22;6091;51.432;6.880;2023-05-10T18:52:42;26.40;39.80
12060;DHT22;6091;51.432;6.880;2023-05-10T18:55:09;26.40;39.80
12060;DHT22;6091;51.432;6.880;2023-05-10T18:57:37;26.30;39.80
12060;DHT22;6091;51.432;6.880;2023-05-10T19:00:09;26.30;39.90
12060;DHT22;6091;51.432;6.880;2023-05-10T19:02:39;26.30;39.80
12060;DHT22;6091;51.432;6.880;2023-05-10T19:05:10;26.20;39.80
12060;DHT22;6091;51.432;6.880;2023-05-10T19:07:37;26.00;39.80
12060;DHT22;6091;51.432;6.880;2023-05-10T19:10:06;26.20;40.00
12060;DHT22;6091;51.432;6.880;2023-05-10T19:12:34;26.20;39.90